Time;durP1;ratioP1;P1;durP2;ratioP2;P2;SDS_P1;SDS_P2;PMS_P1;PMS_P2;Temp;Humidity;BMP_temperature;BMP_pressure;BME280_temperature;BME280_humidity;BME280_pressure;Samples;Min_cycle;Max_cycle;Signal;HPM_P1;HPM_P2
2022/08/11 00:00:05;;;;;;;10.95;5.80;;;;;;;20.32;63.74;95398.63;5092790;28;20066;-85
2022/08/11 00:02:34;;;;;;;8.70;6.30;;;;;;;20.02;64.67;95399.81;5091777;28;20039;-85
2022/08/11 00:05:09;;;;;;;12.38;6.13;;;;;;;19.51;64.61;95341.72;5093507;28;20374;-85
2022/08/11 00:07:55;;;;;;;9.82;6.40;;;;;;;19.47;64.77;95311.19;5092092;28;20051;-85
2022/08/11 00:10:24;;;;;;;14.90;6.47;;;;;;;19.87;63.58;95327.72;5093925;28;20119;-86
2022/08/11 00:13:02;;;;;;;9.52;6.15;;;;;;;20.14;63.66;95358.72;5092068;28;20032;-86
2022/08/11 00:15:40;;;;;;;9.25;6.07;;;;;;;20.26;63.76;95385.69;5125756;27;20024;-85
2022/08/11 00:18:06;;;;;;;10.25;5.70;;;;;;;19.85;63.88;95340.69;5126122;27;20105;-85
2022/08/11 00:20:35;;;;;;;9.55;5.75;;;;;;;19.86;63.53;95318.06;5126282;27;20028;-86
2022/08/11 00:23:07;;;;;;;7.93;6.30;;;;;;;20.26;63.30;95370.31;5091844;28;20042;-86
2022/08/11 00:25:48;;;;;;;8.85;5.70;;;;;;;20.02;63.40;95338.69;5125512;27;20101;-85
2022/08/11 00:28:22;;;;;;;10.80;6.20;;;;;;;20.49;63.37;95402.31;5126208;27;20039;-85
2022/08/11 00:30:50;;;;;;;9.98;6.57;;;;;;;19.43;64.00;95253.78;5091010;28;20424;-85
2022/08/11 00:33:17;;;;;;;6.88;6.22;;;;;;;19.97;63.58;95324.63;5125853;27;20418;-85
2022/08/11 00:35:44;;;;;;;8.30;6.05;;;;;;;20.30;63.89;95375.81;5125739;27;20028;-85
2022/08/11 00:38:11;;;;;;;11.20;5.90;;;;;;;20.45;63.07;95374.44;5091735;28;20039;-85
2022/08/11 00:40:50;;;;;;;10.57;5.75;;;;;;;20.15;62.97;95312.59;5126125;27;20036;-85
2022/08/11 00:43:36;;;;;;;7.32;5.95;;;;;;;20.57;63.12;95396.06;5126495;27;20490;-85
2022/08/11 00:46:20;;;;;;;7.15;6.35;;;;;;;20.08;63.42;95347.34;5092047;28;20024;-85
2022/08/11 00:49:23;;;;;;;8.65;5.82;;;;;;;20.45;63.57;95394.09;5125661;27;20502;-85
2022/08/11 00:52:09;;;;;;;11.07;6.85;;;;;;;19.78;63.81;95311.63;5093183;28;20517;-85
2022/08/11 00:55:03;;;;;;;8.77;6.78;;;;;;;20.46;63.54;95390.28;5092675;28;20032;-85
2022/08/11 00:57:47;;;;;;;10.75;6.60;;;;;;;20.51;63.25;95395.50;5060360;28;20071;-85
2022/08/11 01:00:15;;;;;;;12.23;6.55;;;;;;;20.67;62.68;95385.66;5125370;27;20066;-86
2022/08/11 01:03:16;;;;;;;10.80;6.07;;;;;;;20.65;62.80;95396.00;5091125;28;20117;-85
2022/08/11 01:06:27;;;;;;;11.20;6.47;;;;;;;20.65;62.91;95397.91;5119180;27;20418;-85
2022/08/11 01:09:30;;;;;;;7.47;5.70;;;;;;;20.75;62.47;95395.56;5114257;27;20514;-84
2022/08/11 01:12:20;;;;;;;8.32;5.40;;;;;;;20.75;62.36;95392.84;5126102;27;20293;-84
2022/08/11 01:14:49;;;;;;;9.30;5.35;;;;;;;20.92;62.09;95389.19;5125403;27;20082;-85
2022/08/11 01:17:40;;;;;;;12.32;6.28;;;;;;;20.75;62.44;95384.78;5124592;27;20126;-85
2022/08/11 01:20:09;;;;;;;9.20;5.78;;;;;;;20.82;62.29;95386.16;5081939;28;20040;-85
2022/08/11 01:22:50;;;;;;;7.00;6.03;;;;;;;20.83;62.23;95380.41;5092005;28;20040;-84
2022/08/11 01:25:46;;;;;;;9.70;5.72;;;;;;;20.70;62.49;95387.69;5121211;27;20048;-85
2022/08/11 01:28:46;;;;;;;10.45;6.13;;;;;;;19.59;62.36;95203.69;5089288;28;20036;-85
2022/08/11 01:31:37;;;;;;;6.40;5.25;;;;;;;20.67;62.58;95371.41;5083366;28;20040;-86
2022/08/11 01:34:32;;;;;;;6.35;5.63;;;;;;;20.64;62.67;95374.75;5121008;28;20028;-85
2022/08/11 01:37:19;;;;;;;8.85;5.45;;;;;;;20.52;63.01;95390.88;5093027;28;20036;-85
2022/08/11 01:40:15;;;;;;;9.18;5.88;;;;;;;20.48;63.32;95377.28;5092640;28;20499;-85
2022/08/11 01:45:51;;;;;;;7.03;5.80;;;;;;;20.13;63.45;95324.81;5096373;28;20039;-85
2022/08/11 01:48:41;;;;;;;7.55;5.18;;;;;;;20.55;63.13;95371.34;5126006;27;20035;-85
2022/08/11 01:51:16;;;;;;;14.95;5.90;;;;;;;20.29;63.03;95339.25;5096157;28;20111;-85
2022/08/11 01:53:41;;;;;;;9.32;5.22;;;;;;;20.60;62.82;95374.63;5121431;27;20394;-85
2022/08/11 01:56:26;;;;;;;10.32;5.50;;;;;;;20.53;63.07;95368.19;5095616;28;20031;-85
2022/08/11 01:59:17;;;;;;;6.40;5.70;;;;;;;20.46;63.17;95368.75;5122941;27;20043;-84
2022/08/11 02:02:04;;;;;;;11.95;6.45;;;;;;;20.57;62.98;95371.81;5096278;28;20102;-85
2022/08/11 02:04:42;;;;;;;8.73;6.05;;;;;;;18.46;62.87;95077.31;5128581;27;20036;-85
2022/08/11 02:07:45;;;;;;;9.80;5.65;;;;;;;20.40;63.42;95378.16;5096348;28;20056;-85
2022/08/11 02:13:32;;;;;;;7.70;5.68;;;;;;;20.50;63.21;95372.34;5096244;28;20402;-85
2022/08/11 02:16:14;;;;;;;12.60;6.25;;;;;;;19.88;63.21;95280.84;5088786;28;20034;-85
2022/08/11 02:25:05;;;;;;;8.45;5.70;;;;;;;20.55;62.80;95369.44;5094419;28;20187;-85
2022/08/11 02:27:48;;;;;;;7.20;6.15;;;;;;;20.55;62.89;95374.84;5131170;27;20062;-85
2022/08/11 02:30:16;;;;;;;9.82;5.60;;;;;;;19.92;63.14;95292.50;5115265;28;20042;-85
2022/08/11 02:33:23;;;;;;;10.32;6.80;;;;;;;20.30;63.85;95373.13;5097617;28;20043;-85
2022/08/11 02:36:18;;;;;;;8.73;6.35;;;;;;;20.21;64.21;95372.44;5131331;27;20489;-85
2022/08/11 02:39:08;;;;;;;8.10;6.75;;;;;;;20.18;64.26;95375.78;5115868;28;20024;-85
2022/08/11 02:45:03;;;;;;;13.45;7.13;;;;;;;19.76;63.51;95281.56;5116070;28;20042;-85
2022/08/11 02:47:37;;;;;;;10.20;6.50;;;;;;;20.38;63.42;95366.91;5097332;28;20046;-84
2022/08/11 02:50:21;;;;;;;8.85;6.15;;;;;;;19.49;63.50;95247.91;5131031;27;20085;-85
2022/08/11 02:52:58;;;;;;;11.23;6.95;;;;;;;20.18;63.82;95367.69;5130188;27;20031;-85
2022/08/11 02:55:23;;;;;;;11.60;6.57;;;;;;;20.18;63.69;95367.69;5115328;28;20023;-85
2022/08/11 02:57:56;;;;;;;11.23;6.22;;;;;;;20.27;63.42;95379.97;5131268;27;20050;-85
2022/08/11 03:00:25;;;;;;;8.90;6.35;;;;;;;19.98;63.82;95339.66;5097490;28;20028;-85
2022/08/11 03:03:06;;;;;;;9.55;6.55;;;;;;;20.19;63.63;95372.75;5131078;27;20123;-85
2022/08/11 03:05:44;;;;;;;9.20;6.32;;;;;;;20.12;63.78;95367.13;5115814;28;20039;-85
2022/08/11 03:08:30;;;;;;;10.50;5.88;;;;;;;19.62;63.35;95275.66;5131173;27;20040;-85
2022/08/11 03:17:29;;;;;;;9.52;6.90;;;;;;;20.22;63.29;95377.47;5115697;28;20043;-85
2022/08/11 03:20:20;;;;;;;8.38;6.72;;;;;;;20.31;63.03;95380.09;5131251;27;20558;-85
2022/08/11 03:23:07;;;;;;;10.93;6.57;;;;;;;20.24;63.33;95371.75;5130820;27;20050;-84
2022/08/11 03:25:45;;;;;;;10.57;6.85;;;;;;;20.30;63.21;95375.81;5126902;27;20302;-85
2022/08/11 03:28:27;;;;;;;10.35;6.63;;;;;;;20.36;62.86;95375.34;5089723;28;20048;-84
2022/08/11 03:31:23;;;;;;;10.32;6.82;;;;;;;20.34;62.80;95374.09;5120862;27;20594;-84
2022/08/11 03:34:12;;;;;;;12.30;7.57;;;;;;;20.31;62.18;95345.06;5127202;27;20044;-85
2022/08/11 03:36:45;;;;;;;9.70;7.25;;;;;;;20.57;62.04;95375.31;5094576;28;20036;-85
2022/08/11 03:39:39;;;;;;;9.77;6.80;;;;;;;20.12;62.17;95342.09;5094352;28;20554;-85
2022/08/11 03:42:19;;;;;;;12.05;7.35;;;;;;;20.34;62.38;95377.56;5084674;28;20042;-85
2022/08/11 03:45:13;;;;;;;9.75;7.18;;;;;;;20.39;62.44;95379.25;5127534;27;20427;-85
2022/08/11 03:47:57;;;;;;;10.73;7.13;;;;;;;20.35;62.35;95381.06;5127131;27;20031;-85
2022/08/11 03:50:50;;;;;;;13.35;7.30;;;;;;;20.31;62.48;95380.09;5128195;27;20385;-84
2022/08/11 03:53:54;;;;;;;9.30;6.70;;;;;;;20.09;62.89;95383.91;5126327;27;20042;-85
2022/08/11 03:56:37;;;;;;;11.32;7.30;;;;;;;19.94;63.40;95382.59;5127547;27;20414;-85
2022/08/11 03:59:03;;;;;;;14.55;7.75;;;;;;;19.87;63.89;95379.63;5123593;27;20036;-85
2022/08/11 04:02:06;;;;;;;12.52;7.20;;;;;;;19.44;63.56;95320.69;5127147;27;20044;-85
2022/08/11 04:05:10;;;;;;;20.95;8.75;;;;;;;20.01;63.43;95387.44;5093506;28;20440;-85
2022/08/11 04:07:47;;;;;;;11.18;7.45;;;;;;;19.98;63.24;95390.81;5094346;28;20439;-85
2022/08/11 04:10:27;;;;;;;9.32;7.45;;;;;;;19.99;63.30;95387.78;5085647;28;20036;-85
2022/08/11 04:13:27;;;;;;;14.98;6.95;;;;;;;19.99;63.27;95393.16;5121125;27;20032;-85
2022/08/11 04:16:37;;;;;;;13.77;7.60;;;;;;;19.80;63.98;95390.13;5126660;27;20040;-85
2022/08/11 04:19:26;;;;;;;11.88;7.07;;;;;;;19.89;63.63;95392.78;5126667;27;20376;-84
2022/08/11 04:22:20;;;;;;;13.10;7.70;;;;;;;19.93;63.52;95391.00;5117590;27;20040;-84
2022/08/11 04:25:07;;;;;;;13.32;7.80;;;;;;;19.83;63.73;95392.19;5112599;27;20438;-85
2022/08/11 04:27:43;;;;;;;14.88;8.63;;;;;;;19.88;63.49;95391.97;5126571;27;20040;-85
2022/08/11 04:30:35;;;;;;;19.83;8.52;;;;;;;19.98;63.18;95390.81;5108899;27;20039;-85
2022/08/11 04:33:19;;;;;;;14.35;8.25;;;;;;;19.83;63.55;95394.09;5093334;28;20043;-85
2022/08/11 04:37:31;;;;;;;12.65;7.90;;;;;;;19.26;63.62;95303.88;5112234;27;20135;-85
2022/08/11 04:39:26;;;;;;;16.65;8.77;;;;;;;19.96;63.38;95398.44;5089541;28;20047;-85
2022/08/11 04:45:32;;;;;;;19.23;8.63;;;;;;;19.40;63.61;95313.59;5093492;28;20082;-85
2022/08/11 05:01:41;;;;;;;16.20;8.82;;;;;;;19.86;64.23;95398.78;5092866;28;20575;-85
2022/08/11 05:07:51;;;;;;;16.15;7.85;;;;;;;18.68;65.28;95264.31;5101011;28;20165;-85
2022/08/11 05:10:58;;;;;;;19.73;9.73;;;;;;;19.57;65.20;95397.69;5092023;28;20027;-85
2022/08/11 05:37:06;;;;;;;8.20;7.25;;;;;;;19.67;65.72;95401.94;5132350;27;20062;-85
2022/08/11 05:56:58;;;;;;;10.32;7.85;;;;;;;19.35;66.32;95362.97;5112529;28;20092;-84
2022/08/11 05:59:27;;;;;;;13.55;8.50;;;;;;;19.20;66.16;95333.97;5094036;28;20036;-85
2022/08/11 06:02:02;;;;;;;12.55;8.80;;;;;;;19.35;66.30;95354.91;5093976;28;20425;-85
2022/08/11 06:04:28;;;;;;;10.30;8.20;;;;;;;19.03;66.48;95312.53;5094266;28;20096;-85
2022/08/11 06:06:58;;;;;;;13.70;8.73;;;;;;;19.62;66.26;95397.50;5113140;28;20261;-85
2022/08/11 06:09:36;;;;;;;16.67;9.02;;;;;;;19.83;66.00;95394.09;5093814;28;20038;-85
2022/08/11 06:12:07;;;;;;;15.15;8.98;;;;;;;19.89;65.89;95393.56;5112223;28;20046;-85
2022/08/11 06:14:34;;;;;;;;;;;;;;;20.03;65.58;95390.63;5113055;28;20032;-85
2022/08/11 06:17:02;;;;;;;22.85;9.25;;;;;;;19.88;65.25;95373.16;5109647;28;19925;-86
2022/08/11 06:19:47;;;;;;;15.70;8.48;;;;;;;20.18;64.98;95391.94;5094211;28;20528;-86
2022/08/11 06:22:19;;;;;;;22.95;8.60;;;;;;;20.07;64.33;95358.41;5094353;28;20092;-86
2022/08/11 06:24:54;;;;;;;17.45;9.18;;;;;;;20.34;64.32;95395.63;5093695;28;20056;-86
2022/08/11 06:27:25;;;;;;;14.15;8.80;;;;;;;20.46;64.12;95392.19;5094133;28;20137;-86
2022/08/11 06:29:52;;;;;;;14.00;9.82;;;;;;;20.16;63.70;95326.84;5097651;28;20525;-85
2022/08/11 06:32:20;;;;;;;15.48;9.63;;;;;;;20.48;63.83;95369.19;5097480;28;20438;-86
2022/08/11 06:34:54;;;;;;;17.60;9.10;;;;;;;20.71;62.75;95383.88;5098398;28;20031;-86
2022/08/11 06:37:30;;;;;;;20.40;8.85;;;;;;;20.28;62.46;95300.75;5097823;28;20032;-85
2022/08/11 06:40:07;;;;;;;15.20;9.40;;;;;;;20.92;62.62;95377.63;5097533;28;20092;-86
2022/08/11 06:42:37;;;;;;;17.63;9.20;;;;;;;20.95;62.25;95390.44;5116291;28;20027;-86
2022/08/11 06:45:18;;;;;;;16.55;8.70;;;;;;;20.90;61.58;95387.97;5098086;28;20027;-85
2022/08/11 06:47:48;;;;;;;13.90;7.63;;;;;;;20.50;60.77;95304.22;5098282;28;20035;-85
2022/08/11 06:53:06;;;;;;;13.98;6.90;;;;;;;20.68;59.70;95287.50;5117078;28;20496;-86
2022/08/11 07:01:12;;;;;;;13.98;7.55;;;;;;;21.11;59.20;95315.88;5115526;28;20034;-86
2022/08/11 07:03:47;;;;;;;14.65;7.50;;;;;;;21.43;58.88;95362.78;5096963;28;20028;-86
2022/08/11 07:15:40;;;;;;;11.25;7.15;;;;;;;21.52;57.57;95364.22;5096876;28;20130;-84
2022/08/11 07:15:47;;;;;;;12.38;6.53;;;;;;;21.72;56.72;95354.44;5095097;28;20042;-85
2022/08/11 07:30:03;;;;;;;12.98;6.38;;;;;;;22.22;54.51;95369.44;5094688;28;20093;-84
2022/08/11 07:32:32;;;;;;;10.77;6.07;;;;;;;21.89;54.85;95321.00;5094294;28;20039;-85
2022/08/11 07:35:19;;;;;;;11.32;6.07;;;;;;;22.35;54.94;95375.59;5075958;28;20084;-85
2022/08/11 07:37:53;;;;;;;7.35;5.10;;;;;;;22.44;52.83;95379.72;5075895;28;20036;-85
2022/08/11 07:40:21;;;;;;;5.90;4.45;;;;;;;22.51;52.69;95371.78;5075667;28;20024;-85
2022/08/11 07:42:48;;;;;;;14.13;5.78;;;;;;;21.98;53.09;95283.06;5094907;28;20032;-85
2022/08/11 07:53:30;;;;;;;12.73;5.60;;;;;;;22.26;53.09;95338.69;5094770;28;20039;-85
2022/08/11 07:55:58;;;;;;;9.85;5.57;;;;;;;22.60;53.28;95363.53;5094367;28;20028;-85
2022/08/11 08:17:51;;;;;;;5.80;5.00;;;;;;;22.63;50.83;95327.72;5114336;28;20042;-85
2022/08/11 08:20:23;;;;;;;5.55;4.07;;;;;;;22.76;51.07;95323.84;5095267;28;20042;-84
2022/08/11 08:22:58;;;;;;;6.72;5.32;;;;;;;22.48;50.12;95263.63;5095690;28;20438;-84
2022/08/11 08:25:29;;;;;;;7.18;4.82;;;;;;;23.16;50.30;95352.66;5128865;27;20115;-84
2022/08/11 08:27:57;;;;;;;10.15;5.25;;;;;;;22.95;49.45;95288.81;5113958;28;20066;-85
2022/08/11 08:33:12;;;;;;;5.55;4.68;;;;;;;23.18;48.02;95310.59;5114551;28;20042;-84
2022/08/11 08:35:40;;;;;;;8.60;4.60;;;;;;;22.90;48.77;95261.22;5120806;27;20051;-84
2022/08/11 08:38:05;;;;;;;5.55;4.68;;;;;;;23.14;48.59;95288.09;5113221;28;20107;-84
2022/08/11 08:40:31;;;;;;;13.75;4.75;;;;;;;23.31;48.66;95314.00;5129154;27;20100;-84
2022/08/11 08:43:11;;;;;;;9.23;4.60;;;;;;;23.31;48.65;95287.72;5129174;27;20481;-84
2022/08/11 08:45:38;;;;;;;6.43;4.97;;;;;;;23.50;48.42;95334.97;5128271;27;20126;-84
2022/08/11 08:48:19;;;;;;;7.53;4.50;;;;;;;22.55;48.19;95224.03;5128715;27;20034;-84
2022/08/11 08:53:43;;;;;;;5.53;4.43;;;;;;;22.80;47.30;95194.16;5113184;28;20112;-84
2022/08/11 08:56:09;;;;;;;9.43;4.72;;;;;;;23.75;47.16;95309.22;5128446;27;20504;-84
2022/08/11 08:58:38;;;;;;;5.97;4.63;;;;;;;24.05;47.12;95341.97;5113362;28;20063;-84
2022/08/11 09:01:04;;;;;;;6.53;4.88;;;;;;;23.30;48.78;95245.56;5094404;28;20046;-84
2022/08/11 09:03:31;;;;;;;6.07;5.30;;;;;;;23.87;48.93;95321.88;5128558;27;20044;-84
2022/08/11 09:05:57;;;;;;;15.80;5.22;;;;;;;23.46;48.71;95275.28;5094378;28;20080;-84
2022/08/11 09:08:23;;;;;;;8.80;5.05;;;;;;;23.83;47.45;95325.28;5094585;28;20035;-84
2022/08/11 09:11:48;;;;;;;9.02;4.72;;;;;;;23.47;49.25;95287.69;5094330;28;20085;-84
2022/08/11 09:13:36;;;;;;;12.13;5.30;;;;;;;23.61;48.87;95320.53;5112752;28;20035;-84
2022/08/11 09:16:05;;;;;;;7.30;5.65;;;;;;;23.46;48.41;95253.66;5095553;28;20123;-85
2022/08/11 09:18:31;;;;;;;8.00;5.03;;;;;;;23.93;48.19;95313.09;5112808;28;20089;-84
2022/08/11 09:20:58;;;;;;;4.95;4.45;;;;;;;24.02;47.71;95321.03;5113197;28;20505;-84
2022/08/11 09:28:54;;;;;;;4.97;3.83;;;;;;;23.44;46.19;95212.59;5092863;28;20528;-84
2022/08/11 09:31:21;;;;;;;7.72;3.45;;;;;;;23.55;43.14;95221.00;5074254;28;20486;-84
2022/08/11 09:33:50;;;;;;;8.02;4.78;;;;;;;24.20;45.94;95322.19;5074383;28;20047;-84
2022/08/11 09:41:48;;;;;;;8.50;5.00;;;;;;;24.26;45.90;95315.34;5092547;28;20113;-84
2022/08/11 09:46:59;;;;;;;10.60;5.28;;;;;;;24.04;47.68;95269.97;5093165;28;20109;-84
2022/08/11 09:49:27;;;;;;;8.00;5.57;;;;;;;24.33;47.38;95282.19;5073795;28;20043;-84
2022/08/11 09:51:54;;;;;;;7.32;4.90;;;;;;;24.56;47.01;95308.19;5073928;28;20097;-85
2022/08/11 09:54:24;;;;;;;6.80;4.72;;;;;;;24.33;45.20;95253.16;5107557;28;20062;-84
2022/08/11 09:59:36;;;;;;;10.02;5.43;;;;;;;25.70;43.35;95247.66;5092502;28;20082;-84
2022/08/11 10:02:03;;;;;;;8.57;5.20;;;;;;;26.70;41.65;95293.13;5075687;28;20032;-84
2022/08/11 10:04:40;;;;;;;9.43;5.45;;;;;;;26.39;41.24;95227.16;5078529;28;20032;-84
2022/08/11 10:07:09;;;;;;;7.57;4.90;;;;;;;26.43;41.16;95252.44;5097786;28;20032;-85
2022/08/11 10:09:49;;;;;;;7.88;4.78;;;;;;;27.34;40.34;95277.34;5110297;28;20036;-84
2022/08/11 10:12:34;;;;;;;14.23;4.97;;;;;;;26.98;39.77;95181.84;5095042;28;20375;-84
2022/08/11 10:15:32;;;;;;;5.68;4.82;;;;;;;28.11;39.11;95260.69;5074652;28;20063;-84
2022/08/11 10:20:51;;;;;;;8.77;5.05;;;;;;;27.82;36.80;95145.34;5075368;28;20050;-84
2022/08/11 10:28:47;;;;;;;7.85;5.25;;;;;;;28.28;37.13;95226.53;5075428;28;20090;-85
2022/08/11 10:34:00;;;;;;;5.65;4.10;;;;;;;28.30;34.56;95159.50;5073880;28;20097;-86
2022/08/11 10:36:28;;;;;;;6.28;4.47;;;;;;;28.93;34.50;95201.69;5073016;28;20060;-85
2022/08/11 10:38:56;;;;;;;9.70;5.75;;;;;;;29.75;34.18;95280.84;5072657;28;20199;-85
2022/08/11 10:44:09;;;;;;;8.57;3.90;;;;;;;29.80;33.15;95266.75;5073351;28;20118;-84
2022/08/11 10:49:21;;;;;;;5.05;4.30;;;;;;;29.76;32.42;95190.22;5074785;28;20086;-85
2022/08/11 11:00:05;;;;;;;4.10;3.70;;;;;;;30.41;31.98;95254.44;5074116;28;20043;-84
2022/08/11 11:02:33;;;;;;;6.60;4.13;;;;;;;30.83;31.77;95249.91;5094793;28;20047;-84
2022/08/11 11:05:08;;;;;;;11.43;4.13;;;;;;;30.34;32.17;95172.41;5056539;28;20028;-85
2022/08/11 11:07:40;;;;;;;8.02;3.95;;;;;;;30.38;32.21;95170.41;5056402;28;20522;-85
2022/08/11 11:10:08;;;;;;;4.68;3.85;;;;;;;30.63;31.67;95181.22;5089554;28;20029;-85
2022/08/11 11:18:21;;;;;;;10.80;4.97;;;;;;;31.34;31.14;95206.09;5094437;28;20043;-85
2022/08/11 11:20:57;;;;;;;5.55;4.50;;;;;;;31.21;30.35;95199.56;5084088;28;20043;-83
2022/08/11 11:23:36;;;;;;;8.25;4.65;;;;;;;31.35;30.86;95239.75;5079422;28;20037;-83
2022/08/11 11:26:05;;;;;;;8.40;4.50;;;;;;;31.05;31.28;95246.63;5100609;28;20031;-83
2022/08/11 11:29:04;;;;;;;8.43;3.95;;;;;;;30.21;32.25;95256.88;5103903;28;20035;-84
2022/08/11 11:31:45;;;;;;;4.82;4.30;;;;;;;30.26;33.04;95247.50;5088700;28;20522;-83
2022/08/11 11:34:43;;;;;;;6.20;4.22;;;;;;;30.06;31.86;95189.75;5117389;27;20042;-84
2022/08/11 11:37:12;;;;;;;6.35;4.07;;;;;;;30.42;30.06;95231.38;5077945;28;20043;-84
2022/08/11 11:39:38;;;;;;;6.13;3.88;;;;;;;31.05;30.21;95221.97;5085837;28;20036;-84
2022/08/11 11:42:09;;;;;;;5.75;4.40;;;;;;;31.44;29.76;95198.94;5090289;28;20032;-85
2022/08/11 11:44:42;;;;;;;8.43;4.93;;;;;;;31.77;30.17;95224.88;5117684;27;20367;-84
2022/08/11 11:47:10;;;;;;;7.78;3.40;;;;;;;31.72;31.20;95234.31;5095827;28;20093;-84
2022/08/11 11:49:39;;;;;;;14.00;3.67;;;;;;;32.50;30.26;95243.59;5115017;28;20096;-84
2022/08/11 11:52:06;;;;;;;10.35;4.60;;;;;;;32.88;29.68;95234.03;5094971;28;20038;-84
2022/08/11 11:54:35;;;;;;;7.43;3.20;;;;;;;32.54;30.66;95209.41;5121226;27;20034;-85
2022/08/11 12:02:35;;;;;;;4.82;2.80;;;;;;;31.09;32.12;95183.63;5097783;28;20055;-84
2022/08/11 12:05:01;;;;;;;4.75;3.33;;;;;;;31.48;31.63;95218.88;5124794;27;20055;-84
2022/08/11 12:10:13;;;;;;;7.15;3.70;;;;;;;30.63;33.38;95220.34;5109044;28;20089;-83
2022/08/11 12:15:23;;;;;;;11.90;4.28;;;;;;;30.67;33.87;95196.44;5104581;28;20504;-85
2022/08/11 12:17:49;;;;;;;7.90;4.28;;;;;;;30.75;33.09;95191.69;5116219;27;20141;-84
2022/08/11 12:20:18;;;;;;;9.77;4.30;;;;;;;30.23;33.83;95191.63;5089026;28;20035;-85
2022/08/11 12:28:12;;;;;;;10.30;4.63;;;;;;;29.63;35.24;95185.59;5100466;28;20035;-85
2022/08/11 12:30:40;;;;;;;15.70;4.20;;;;;;;29.34;35.00;95146.63;5090830;28;20036;-84
2022/08/11 12:33:07;;;;;;;8.32;3.60;;;;;;;28.97;35.88;95185.31;5094350;28;20038;-85
2022/08/11 12:35:34;;;;;;;6.95;3.50;;;;;;;28.77;35.84;95182.97;5103345;28;20596;-85
2022/08/11 12:38:02;;;;;;;5.72;3.60;;;;;;;28.76;35.94;95175.19;5074493;28;20040;-85
2022/08/11 12:46:04;;;;;;;5.18;2.95;;;;;;;29.24;33.98;95175.50;5112355;28;20038;-85
2022/08/11 12:54:15;;;;;;;4.93;3.45;;;;;;;29.55;36.32;95182.88;5113062;28;20053;-85
2022/08/11 13:05:07;;;;;;;7.00;3.85;;;;;;;31.13;34.14;95239.16;5116756;28;20096;-85
2022/08/11 13:07:34;;;;;;;7.57;3.33;;;;;;;31.52;33.52;95211.38;5094967;28;20043;-85
2022/08/11 13:10:02;;;;;;;8.45;3.35;;;;;;;31.58;33.29;95212.53;5094599;28;20027;-85
2022/08/11 13:12:48;;;;;;;6.93;3.30;;;;;;;31.66;32.36;95164.66;5094030;28;20030;-85
2022/08/11 13:15:20;;;;;;;7.07;3.28;;;;;;;31.94;32.06;95127.91;5094203;28;20396;-86
2022/08/11 13:17:48;;;;;;;5.53;3.03;;;;;;;32.55;32.00;95212.94;5112305;28;20028;-85
2022/08/11 13:20:19;;;;;;;8.13;3.50;;;;;;;32.44;31.06;95182.09;5112171;28;20096;-86
2022/08/11 13:22:48;;;;;;;5.95;3.13;;;;;;;33.74;30.13;95227.91;5094875;28;20516;-85
2022/08/11 13:25:16;;;;;;;4.13;2.60;;;;;;;33.42;29.69;95135.00;5093346;28;20078;-85
2022/08/11 13:27:45;;;;;;;4.53;2.70;;;;;;;33.10;29.54;95118.31;5112162;28;20039;-86
2022/08/11 13:32:58;;;;;;;5.65;2.40;;;;;;;33.06;27.78;95115.63;5111660;28;20074;-85
2022/08/11 13:35:26;;;;;;;3.42;2.22;;;;;;;32.58;28.12;95033.66;5083452;28;20459;-85
2022/08/11 13:37:52;;;;;;;3.58;2.42;;;;;;;33.62;27.97;95181.78;5111892;28;20467;-85
2022/08/11 13:40:20;;;;;;;5.55;2.20;;;;;;;33.22;27.36;95173.47;5093758;28;20028;-85
2022/08/11 13:42:48;;;;;;;4.53;2.45;;;;;;;32.71;26.64;95073.09;5111701;28;20035;-86
2022/08/11 13:45:13;;;;;;;8.35;2.50;;;;;;;32.75;26.91;95086.75;5111850;28;20118;-85
2022/08/11 13:47:41;;;;;;;4.18;2.40;;;;;;;33.69;26.44;95178.88;5093887;28;20051;-85
2022/08/11 13:50:08;;;;;;;3.65;2.50;;;;;;;33.06;27.59;95077.16;5092435;28;20046;-86
2022/08/11 13:52:38;;;;;;;3.58;2.22;;;;;;;33.26;28.42;95198.91;5126237;28;20561;-85
2022/08/11 13:55:06;;;;;;;5.57;2.58;;;;;;;33.29;26.81;95095.59;5091521;28;20036;-86
2022/08/11 13:57:32;;;;;;;6.47;2.90;;;;;;;33.87;26.16;95171.09;5110908;28;20027;-86
2022/08/11 14:00:08;;;;;;;6.80;3.30;;;;;;;33.42;26.93;95151.50;5092157;28;20574;-86
2022/08/11 14:02:36;;;;;;;3.95;2.38;;;;;;;34.12;26.20;95194.56;5092124;28;20024;-85
2022/08/11 14:05:10;;;;;;;3.17;2.20;;;;;;;33.72;26.30;95110.06;5125950;28;20039;-85
2022/08/11 14:07:45;;;;;;;3.05;2.20;;;;;;;33.51;26.46;95124.22;5110482;28;20370;-86
2022/08/11 14:10:13;;;;;;;2.75;2.20;;;;;;;33.34;27.64;95156.34;5093866;28;20031;-87
2022/08/11 14:15:25;;;;;;;3.10;2.60;;;;;;;33.98;25.96;95181.88;5112573;28;20038;-86
2022/08/11 14:17:54;;;;;;;5.70;2.90;;;;;;;33.24;25.84;95055.66;5127853;28;20452;-85
2022/08/11 14:20:21;;;;;;;4.60;2.88;;;;;;;33.92;25.46;95150.56;5093652;28;20035;-86
2022/08/11 14:22:49;;;;;;;2.67;2.33;;;;;;;34.36;25.04;95152.00;5112068;28;20039;-86
2022/08/11 14:25:15;;;;;;;2.80;2.38;;;;;;;34.20;25.74;95140.91;5128026;28;20097;-85
2022/08/11 14:27:43;;;;;;;6.45;2.63;;;;;;;34.59;25.16;95184.13;5094227;28;20035;-86
2022/08/11 14:30:53;;;;;;;4.05;2.60;;;;;;;34.33;25.53;95158.38;5093612;28;20024;-85
2022/08/11 14:32:56;;;;;;;7.97;3.10;;;;;;;34.60;25.65;95147.13;5111673;28;20139;-86
2022/08/11 14:35:22;;;;;;;4.82;2.53;;;;;;;33.31;25.55;94915.34;5093598;28;20108;-86
2022/08/11 14:37:48;;;;;;;3.05;2.55;;;;;;;34.92;26.01;95140.88;5127396;28;20050;-85
2022/08/11 14:47:03;;;;;;;9.63;3.55;;;;;;;34.38;26.78;95125.59;5111627;28;20039;-85
2022/08/11 14:48:30;;;;;;;5.32;2.85;;;;;;;34.51;26.65;95155.19;5112824;28;20413;-85
2022/08/11 14:50:57;;;;;;;4.65;2.63;;;;;;;34.30;26.22;95176.50;5096615;28;20023;-85
2022/08/11 14:53:22;;;;;;;4.00;2.80;;;;;;;34.63;26.31;95182.84;5115069;28;20036;-86
2022/08/11 14:58:54;;;;;;;3.08;2.50;;;;;;;34.42;26.07;95167.56;5072513;28;20040;-85
2022/08/11 15:04:04;;;;;;;4.15;2.70;;;;;;;34.02;26.69;95128.34;5098289;28;20042;-85
2022/08/11 15:06:29;;;;;;;3.58;2.60;;;;;;;34.05;27.03;95121.97;5115061;28;20031;-85
2022/08/11 15:08:55;;;;;;;3.53;2.80;;;;;;;33.84;26.96;95147.19;5096321;28;20127;-85
2022/08/11 15:14:09;;;;;;;7.80;3.00;;;;;;;33.04;28.09;95089.75;5115492;28;20123;-86
2022/08/11 15:19:24;;;;;;;5.97;2.72;;;;;;;33.08;28.21;95135.22;5114065;28;20126;-85
2022/08/11 15:24:35;;;;;;;5.45;3.22;;;;;;;32.24;29.05;95140.84;5114031;28;20437;-85
2022/08/11 15:38:12;;;;;;;5.95;2.88;;;;;;;31.89;29.47;95164.00;5114813;28;20038;-85
2022/08/11 15:46:18;;;;;;;5.78;3.40;;;;;;;30.52;29.81;95040.97;5115456;28;20050;-85
2022/08/11 15:48:47;;;;;;;10.82;3.53;;;;;;;30.56;30.14;95091.75;5130003;27;20044;-85
2022/08/11 15:51:21;;;;;;;4.78;2.83;;;;;;;30.55;30.47;95138.69;5095851;28;20031;-85
2022/08/11 15:53:53;;;;;;;8.63;3.35;;;;;;;30.61;30.82;95164.44;5095663;28;20027;-85
2022/08/11 15:56:22;;;;;;;6.00;3.22;;;;;;;30.01;31.25;95112.81;5114182;28;20059;-85
2022/08/11 16:04:25;;;;;;;5.38;3.10;;;;;;;29.52;32.37;95175.47;5114574;28;20417;-85
2022/08/11 16:06:53;;;;;;;5.82;3.70;;;;;;;29.34;33.25;95174.72;5095313;28;20083;-85
2022/08/11 16:09:33;;;;;;;9.00;3.38;;;;;;;29.00;33.50;95159.94;5129273;27;20386;-86
2022/08/11 16:12:02;;;;;;;8.60;3.70;;;;;;;27.95;34.09;95010.28;5113459;28;20133;-84
2022/08/11 16:17:23;;;;;;;10.02;3.25;;;;;;;28.20;34.93;95137.69;5114276;28;20034;-85
2022/08/11 16:19:52;;;;;;;8.35;3.28;;;;;;;28.30;34.69;95143.13;5112893;28;20031;-85
2022/08/11 16:22:27;;;;;;;5.57;3.20;;;;;;;28.27;35.14;95171.19;5094853;28;20481;-85
2022/08/11 16:24:55;;;;;;;10.05;3.83;;;;;;;27.64;35.66;95101.69;5128236;27;20044;-86
2022/08/11 16:27:21;;;;;;;7.97;3.97;;;;;;;27.63;35.65;95102.06;5094770;28;20031;-86
2022/08/11 16:29:49;;;;;;;10.18;4.32;;;;;;;28.09;35.30;95150.47;5113774;28;20027;-85
2022/08/11 16:32:20;;;;;;;8.77;3.70;;;;;;;28.22;35.89;95179.75;5113735;28;20032;-85
2022/08/11 16:40:48;;;;;;;7.55;3.33;;;;;;;27.80;35.70;95155.84;5112768;28;20092;-85
2022/08/11 16:48:49;;;;;;;9.45;3.55;;;;;;;27.81;34.75;95116.53;5113019;28;20061;-85
2022/08/11 16:51:16;;;;;;;6.78;3.38;;;;;;;27.90;34.71;95121.63;5094038;28;20591;-86
2022/08/11 16:53:43;;;;;;;6.15;3.58;;;;;;;28.10;34.24;95106.47;5129122;27;20067;-85
2022/08/11 16:56:15;;;;;;;12.98;3.50;;;;;;;28.92;33.94;95205.56;5113249;28;20035;-85